sensor_id;sensor_type;location;lat;lon;timestamp;pressure;altitude;pressure_sealevel;temperature;humidity
34177;BME280;20450;49.074;9.158;2023-08-06T00:00:07;98982.72;;;16.67;89.73
34177;BME280;20450;49.074;9.158;2023-08-06T00:02:34;98970.75;;;16.73;90.24
34177;BME280;20450;49.074;9.158;2023-08-06T00:05:04;98962.56;;;16.88;89.61
34177;BME280;20450;49.074;9.158;2023-08-06T00:07:32;98967.50;;;17.01;89.74
34177;BME280;20450;49.074;9.158;2023-08-06T00:09:59;98963.94;;;16.85;88.88
34177;BME280;20450;49.074;9.158;2023-08-06T00:12:27;98962.56;;;16.78;89.26
34177;BME280;20450;49.074;9.158;2023-08-06T00:14:54;98957.38;;;16.61;90.38
34177;BME280;20450;49.074;9.158;2023-08-06T00:17:21;98959.28;;;16.76;90.26
34177;BME280;20450;49.074;9.158;2023-08-06T00:19:48;98960.34;;;16.50;91.12
34177;BME280;20450;49.074;9.158;2023-08-06T00:22:15;98964.97;;;16.49;92.24
34177;BME280;20450;49.074;9.158;2023-08-06T00:24:42;98961.69;;;16.47;92.57
34177;BME280;20450;49.074;9.158;2023-08-06T00:27:10;98954.63;;;16.46;92.22
34177;BME280;20450;49.074;9.158;2023-08-06T00:29:38;98949.94;;;16.42;91.92
34177;BME280;20450;49.074;9.158;2023-08-06T00:32:06;98947.69;;;16.24;92.77
34177;BME280;20450;49.074;9.158;2023-08-06T00:34:33;98937.34;;;16.21;92.32
34177;BME280;20450;49.074;9.158;2023-08-06T00:37:04;98947.16;;;16.22;91.97
34177;BME280;20450;49.074;9.158;2023-08-06T00:39:32;98941.75;;;16.32;92.02
34177;BME280;20450;49.074;9.158;2023-08-06T00:41:59;98945.84;;;16.29;92.01
34177;BME280;20450;49.074;9.158;2023-08-06T00:44:26;98930.63;;;16.43;91.46
34177;BME280;20450;49.074;9.158;2023-08-06T00:46:55;98942.91;;;16.61;91.59
34177;BME280;20450;49.074;9.158;2023-08-06T00:49:22;98929.56;;;16.74;91.49
34177;BME280;20450;49.074;9.158;2023-08-06T00:51:49;98929.56;;;16.84;90.54
34177;BME280;20450;49.074;9.158;2023-08-06T00:54:17;98923.56;;;16.57;89.36
34177;BME280;20450;49.074;9.158;2023-08-06T00:56:45;98924.66;;;16.71;88.73
34177;BME280;20450;49.074;9.158;2023-08-06T00:59:16;98926.56;;;16.66;88.60
34177;BME280;20450;49.074;9.158;2023-08-06T01:01:45;98918.63;;;16.59;89.54
34177;BME280;20450;49.074;9.158;2023-08-06T01:04:14;98920.28;;;16.65;89.46
34177;BME280;20450;49.074;9.158;2023-08-06T01:06:45;98923.28;;;16.64;89.52
34177;BME280;20450;49.074;9.158;2023-08-06T01:09:24;98919.72;;;16.53;90.16
34177;BME280;20450;49.074;9.158;2023-08-06T01:12:06;98919.75;;;16.68;89.93
34177;BME280;20450;49.074;9.158;2023-08-06T01:14:48;98911.84;;;16.82;89.62
34177;BME280;20450;49.074;9.158;2023-08-06T01:17:23;98910.47;;;16.89;89.06
34177;BME280;20450;49.074;9.158;2023-08-06T01:19:52;98905.56;;;16.66;90.12
34177;BME280;20450;49.074;9.158;2023-08-06T01:22:21;98895.19;;;16.43;90.61
34177;BME280;20450;49.074;9.158;2023-08-06T01:24:50;98894.38;;;16.48;90.77
34177;BME280;20450;49.074;9.158;2023-08-06T01:27:25;98897.09;;;16.53;90.47
34177;BME280;20450;49.074;9.158;2023-08-06T01:30:02;98902.03;;;16.66;90.48
34177;BME280;20450;49.074;9.158;2023-08-06T01:32:34;98893.28;;;16.79;90.29
34177;BME280;20450;49.074;9.158;2023-08-06T01:35:06;98890.28;;;16.70;89.79
34177;BME280;20450;49.074;9.158;2023-08-06T01:37:38;98899.03;;;16.72;90.35
34177;BME280;20450;49.074;9.158;2023-08-06T01:40:07;98882.38;;;16.54;90.53
34177;BME280;20450;49.074;9.158;2023-08-06T01:42:36;98875.84;;;16.60;90.81
34177;BME280;20450;49.074;9.158;2023-08-06T01:45:04;98879.94;;;16.67;90.54
34177;BME280;20450;49.074;9.158;2023-08-06T01:47:32;98879.09;;;16.67;90.87
34177;BME280;20450;49.074;9.158;2023-08-06T01:49:59;98878.56;;;16.70;90.51
34177;BME280;20450;49.074;9.158;2023-08-06T01:52:30;98874.75;;;16.51;90.85
34177;BME280;20450;49.074;9.158;2023-08-06T01:54:59;98871.16;;;16.40;91.14
34177;BME280;20450;49.074;9.158;2023-08-06T01:57:26;98862.97;;;16.35;91.52
34177;BME280;20450;49.074;9.158;2023-08-06T01:59:53;98863.25;;;16.39;91.25
34177;BME280;20450;49.074;9.158;2023-08-06T02:02:20;98860.56;;;16.54;91.13
34177;BME280;20450;49.074;9.158;2023-08-06T02:04:47;98858.91;;;16.38;91.04
34177;BME280;20450;49.074;9.158;2023-08-06T02:07:14;98854.00;;;16.45;90.68
34177;BME280;20450;49.074;9.158;2023-08-06T02:09:41;98851.25;;;16.30;90.63
34177;BME280;20450;49.074;9.158;2023-08-06T02:12:10;98844.69;;;16.26;90.60
34177;BME280;20450;49.074;9.158;2023-08-06T02:14:37;98845.25;;;16.23;90.70
34177;BME280;20450;49.074;9.158;2023-08-06T02:17:05;98847.44;;;16.31;90.17
34177;BME280;20450;49.074;9.158;2023-08-06T02:19:32;98844.94;;;16.19;90.64
34177;BME280;20450;49.074;9.158;2023-08-06T02:22:00;98843.59;;;16.07;91.12
34177;BME280;20450;49.074;9.158;2023-08-06T02:24:26;98840.59;;;16.08;90.58
34177;BME280;20450;49.074;9.158;2023-08-06T02:26:53;98834.88;;;16.15;90.00
34177;BME280;20450;49.074;9.158;2023-08-06T02:29:22;98838.97;;;16.22;89.79
34177;BME280;20450;49.074;9.158;2023-08-06T02:31:49;98831.63;;;16.13;89.84
34177;BME280;20450;49.074;9.158;2023-08-06T02:34:17;98830.25;;;16.20;89.55
34177;BME280;20450;49.074;9.158;2023-08-06T02:36:45;98828.06;;;16.22;89.83
34177;BME280;20450;49.074;9.158;2023-08-06T02:39:12;98828.59;;;16.19;90.26
34177;BME280;20450;49.074;9.158;2023-08-06T02:41:40;98818.00;;;16.13;91.00
34177;BME280;20450;49.074;9.158;2023-08-06T02:44:07;98813.63;;;16.07;92.09
34177;BME280;20450;49.074;9.158;2023-08-06T02:46:35;98816.31;;;16.02;92.44
34177;BME280;20450;49.074;9.158;2023-08-06T02:49:02;98817.69;;;16.04;92.84
34177;BME280;20450;49.074;9.158;2023-08-06T02:51:29;98810.34;;;16.05;92.16
34177;BME280;20450;49.074;9.158;2023-08-06T02:53:56;98814.69;;;16.01;92.34
34177;BME280;20450;49.074;9.158;2023-08-06T02:56:23;98815.25;;;15.98;91.84
34177;BME280;20450;49.074;9.158;2023-08-06T02:59:02;98801.06;;;16.01;91.33
34177;BME280;20450;49.074;9.158;2023-08-06T03:01:44;98796.44;;;15.96;90.13
34177;BME280;20450;49.074;9.158;2023-08-06T03:04:18;98801.06;;;15.96;89.73
34177;BME280;20450;49.074;9.158;2023-08-06T03:06:49;98796.44;;;15.96;89.26
34177;BME280;20450;49.074;9.158;2023-08-06T03:09:16;98794.53;;;15.92;88.58
34177;BME280;20450;49.074;9.158;2023-08-06T03:11:44;98801.88;;;15.96;88.58
34177;BME280;20450;49.074;9.158;2023-08-06T03:14:47;98799.97;;;16.02;87.65
34177;BME280;20450;49.074;9.158;2023-08-06T03:17:15;98807.63;;;16.10;86.52
34177;BME280;20450;49.074;9.158;2023-08-06T03:19:42;98801.34;;;16.09;86.55
34177;BME280;20450;49.074;9.158;2023-08-06T03:22:13;98805.44;;;16.07;86.40
34177;BME280;20450;49.074;9.158;2023-08-06T03:24:45;98802.16;;;16.05;86.60
34177;BME280;20450;49.074;9.158;2023-08-06T03:27:12;98804.34;;;15.98;87.15
34177;BME280;20450;49.074;9.158;2023-08-06T03:29:41;98804.06;;;16.04;87.00
34177;BME280;20450;49.074;9.158;2023-08-06T03:32:10;98806.78;;;15.99;87.09
34177;BME280;20450;49.074;9.158;2023-08-06T03:34:38;98804.88;;;15.95;87.26
34177;BME280;20450;49.074;9.158;2023-08-06T03:37:06;98806.78;;;15.99;87.04
34177;BME280;20450;49.074;9.158;2023-08-06T03:39:33;98810.34;;;16.15;87.15
34177;BME280;20450;49.074;9.158;2023-08-06T03:42:01;98812.78;;;16.16;87.10
34177;BME280;20450;49.074;9.158;2023-08-06T03:44:28;98810.09;;;16.11;86.18
34177;BME280;20450;49.074;9.158;2023-08-06T03:46:55;98812.28;;;16.14;86.04
34177;BME280;20450;49.074;9.158;2023-08-06T03:49:24;98815.28;;;16.23;85.64
34177;BME280;20450;49.074;9.158;2023-08-06T03:51:51;98814.16;;;16.09;84.47
34177;BME280;20450;49.074;9.158;2023-08-06T03:54:18;98819.63;;;16.14;84.35
34177;BME280;20450;49.074;9.158;2023-08-06T03:56:45;98816.63;;;16.25;84.52
34177;BME280;20450;49.074;9.158;2023-08-06T03:59:12;98813.91;;;16.20;83.53
34177;BME280;20450;49.074;9.158;2023-08-06T04:01:40;98820.97;;;16.11;83.59
34177;BME280;20450;49.074;9.158;2023-08-06T04:04:07;98827.28;;;16.22;83.61
34177;BME280;20450;49.074;9.158;2023-08-06T04:06:35;98815.53;;;16.11;82.53
34177;BME280;20450;49.074;9.158;2023-08-06T04:09:02;98819.03;;;15.92;83.90
34177;BME280;20450;49.074;9.158;2023-08-06T04:11:30;98827.19;;;15.97;83.94
34177;BME280;20450;49.074;9.158;2023-08-06T04:13:57;98834.03;;;16.04;84.07
34177;BME280;20450;49.074;9.158;2023-08-06T04:16:24;98833.22;;;16.04;83.65
34177;BME280;20450;49.074;9.158;2023-08-06T04:18:52;98833.78;;;16.21;83.35
34177;BME280;20450;49.074;9.158;2023-08-06T04:21:19;98838.16;;;16.27;81.67
34177;BME280;20450;49.074;9.158;2023-08-06T04:23:47;98842.00;;;16.41;81.73
34177;BME280;20450;49.074;9.158;2023-08-06T04:26:15;98840.94;;;16.47;81.32
34177;BME280;20450;49.074;9.158;2023-08-06T04:28:43;98830.28;;;16.50;80.23
34177;BME280;20450;49.074;9.158;2023-08-06T04:31:10;98834.94;;;16.55;79.27
34177;BME280;20450;49.074;9.158;2023-08-06T04:33:40;98834.94;;;16.60;78.85
34177;BME280;20450;49.074;9.158;2023-08-06T04:36:09;98836.56;;;16.66;78.97
34177;BME280;20450;49.074;9.158;2023-08-06T04:38:38;98840.09;;;16.71;78.79
34177;BME280;20450;49.074;9.158;2023-08-06T04:41:07;98830.03;;;16.72;78.18
34177;BME280;20450;49.074;9.158;2023-08-06T04:43:34;98826.75;;;16.55;79.05
34177;BME280;20450;49.074;9.158;2023-08-06T04:46:01;98832.16;;;16.20;79.97
34177;BME280;20450;49.074;9.158;2023-08-06T04:48:28;98836.28;;;16.32;79.66
34177;BME280;20450;49.074;9.158;2023-08-06T04:50:56;98834.09;;;16.39;79.86
34177;BME280;20450;49.074;9.158;2023-08-06T04:53:23;98837.09;;;16.28;79.82
34177;BME280;20450;49.074;9.158;2023-08-06T04:55:51;98831.03;;;15.96;79.89
34177;BME280;20450;49.074;9.158;2023-08-06T04:58:20;98825.03;;;16.09;80.63
34177;BME280;20450;49.074;9.158;2023-08-06T05:00:47;98831.63;;;16.13;79.24
34177;BME280;20450;49.074;9.158;2023-08-06T05:03:15;98831.06;;;16.26;79.60
34177;BME280;20450;49.074;9.158;2023-08-06T05:05:42;98830.81;;;16.37;78.95
34177;BME280;20450;49.074;9.158;2023-08-06T05:08:14;98834.66;;;16.51;78.91
34177;BME280;20450;49.074;9.158;2023-08-06T05:10:42;98832.22;;;16.65;77.96
34177;BME280;20450;49.074;9.158;2023-08-06T05:13:09;98839.84;;;16.73;77.97
34177;BME280;20450;49.074;9.158;2023-08-06T05:15:38;98843.09;;;16.70;78.40
34177;BME280;20450;49.074;9.158;2023-08-06T05:18:05;98844.75;;;16.76;77.74
34177;BME280;20450;49.074;9.158;2023-08-06T05:20:35;98838.75;;;16.79;78.17
34177;BME280;20450;49.074;9.158;2023-08-06T05:23:03;98841.47;;;16.84;77.67
34177;BME280;20450;49.074;9.158;2023-08-06T05:25:30;98828.38;;;16.81;76.97
34177;BME280;20450;49.074;9.158;2023-08-06T05:27:57;98822.34;;;16.89;76.93
34177;BME280;20450;49.074;9.158;2023-08-06T05:30:24;98830.25;;;16.90;76.91
34177;BME280;20450;49.074;9.158;2023-08-06T05:32:52;98832.19;;;16.90;76.14
34177;BME280;20450;49.074;9.158;2023-08-06T05:35:20;98835.72;;;16.90;76.81
34177;BME280;20450;49.074;9.158;2023-08-06T05:37:49;98835.50;;;16.77;77.41
34177;BME280;20450;49.074;9.158;2023-08-06T05:40:17;98842.81;;;16.81;77.44
34177;BME280;20450;49.074;9.158;2023-08-06T05:42:44;98844.19;;;16.89;78.24
34177;BME280;20450;49.074;9.158;2023-08-06T05:45:11;98847.47;;;16.96;78.09
34177;BME280;20450;49.074;9.158;2023-08-06T05:47:38;98840.38;;;16.85;78.00
34177;BME280;20450;49.074;9.158;2023-08-06T05:50:07;98833.81;;;16.91;78.71
34177;BME280;20450;49.074;9.158;2023-08-06T05:52:35;98843.34;;;16.98;78.75
34177;BME280;20450;49.074;9.158;2023-08-06T05:55:02;98836.53;;;16.86;78.99
34177;BME280;20450;49.074;9.158;2023-08-06T05:57:29;98838.72;;;16.89;78.71
34177;BME280;20450;49.074;9.158;2023-08-06T05:59:56;98843.06;;;16.95;78.76
34177;BME280;20450;49.074;9.158;2023-08-06T06:02:23;98840.06;;;16.96;78.56
34177;BME280;20450;49.074;9.158;2023-08-06T06:04:50;98838.72;;;16.89;78.31
34177;BME280;20450;49.074;9.158;2023-08-06T06:07:19;98844.75;;;16.76;78.63
34177;BME280;20450;49.074;9.158;2023-08-06T06:09:46;98838.75;;;16.74;78.71
34177;BME280;20450;49.074;9.158;2023-08-06T06:12:13;98846.13;;;16.48;79.79
34177;BME280;20450;49.074;9.158;2023-08-06T06:14:40;98844.72;;;16.36;79.94
34177;BME280;20450;49.074;9.158;2023-08-06T06:17:07;98847.44;;;16.41;80.28
34177;BME280;20450;49.074;9.158;2023-08-06T06:19:34;98841.75;;;16.52;80.52
34177;BME280;20450;49.074;9.158;2023-08-06T06:22:00;98846.88;;;16.39;79.94
34177;BME280;20450;49.074;9.158;2023-08-06T06:24:29;98844.75;;;16.66;79.52
34177;BME280;20450;49.074;9.158;2023-08-06T06:26:56;98842.00;;;16.76;78.21
34177;BME280;20450;49.074;9.158;2023-08-06T06:29:23;98852.41;;;16.74;78.57
34177;BME280;20450;49.074;9.158;2023-08-06T06:31:50;98859.22;;;16.76;79.18
34177;BME280;20450;49.074;9.158;2023-08-06T06:34:17;98855.38;;;16.82;78.69
34177;BME280;20450;49.074;9.158;2023-08-06T06:36:44;98856.19;;;16.83;79.24
34177;BME280;20450;49.074;9.158;2023-08-06T06:39:11;98851.81;;;17.02;78.71
34177;BME280;20450;49.074;9.158;2023-08-06T06:41:40;98867.06;;;17.13;77.28
34177;BME280;20450;49.074;9.158;2023-08-06T06:44:16;98856.97;;;17.13;77.32
34177;BME280;20450;49.074;9.158;2023-08-06T06:46:44;98866.53;;;16.86;78.44
34177;BME280;20450;49.074;9.158;2023-08-06T06:49:11;98866.00;;;16.64;79.35
34177;BME280;20450;49.074;9.158;2023-08-06T06:51:38;98865.13;;;16.38;80.07
34177;BME280;20450;49.074;9.158;2023-08-06T06:54:06;98865.13;;;16.38;81.36
34177;BME280;20450;49.074;9.158;2023-08-06T06:56:33;98874.19;;;16.54;80.87
34177;BME280;20450;49.074;9.158;2023-08-06T06:59:01;98872.00;;;16.61;80.88
34177;BME280;20450;49.074;9.158;2023-08-06T07:01:28;98866.31;;;16.57;81.19
34177;BME280;20450;49.074;9.158;2023-08-06T07:03:56;98872.78;;;16.36;81.79
34177;BME280;20450;49.074;9.158;2023-08-06T07:06:23;98871.97;;;16.36;80.83
34177;BME280;20450;49.074;9.158;2023-08-06T07:08:50;98869.56;;;16.59;80.10
34177;BME280;20450;49.074;9.158;2023-08-06T07:11:16;98869.84;;;16.78;78.94
34177;BME280;20450;49.074;9.158;2023-08-06T07:13:44;98869.28;;;16.91;77.81
34177;BME280;20450;49.074;9.158;2023-08-06T07:16:12;98872.28;;;16.94;77.43
34177;BME280;20450;49.074;9.158;2023-08-06T07:18:39;98872.81;;;16.96;77.39
34177;BME280;20450;49.074;9.158;2023-08-06T07:21:06;98873.63;;;16.92;77.14
34177;BME280;20450;49.074;9.158;2023-08-06T07:23:33;98870.91;;;16.97;77.31
34177;BME280;20450;49.074;9.158;2023-08-06T07:26:00;98875.53;;;16.96;77.17
34177;BME280;20450;49.074;9.158;2023-08-06T07:28:27;98879.38;;;17.00;76.97
34177;BME280;20450;49.074;9.158;2023-08-06T07:30:54;98873.09;;;17.05;76.99
34177;BME280;20450;49.074;9.158;2023-08-06T07:33:25;98869.28;;;16.86;77.78
34177;BME280;20450;49.074;9.158;2023-08-06T07:35:52;98877.72;;;16.84;77.50
34177;BME280;20450;49.074;9.158;2023-08-06T07:38:22;98869.53;;;17.04;77.63
34177;BME280;20450;49.074;9.158;2023-08-06T07:40:50;98866.81;;;17.09;76.64
34177;BME280;20450;49.074;9.158;2023-08-06T07:43:17;98871.44;;;17.14;76.35
34177;BME280;20450;49.074;9.158;2023-08-06T07:45:45;98867.91;;;17.03;76.02
34177;BME280;20450;49.074;9.158;2023-08-06T07:48:12;98877.97;;;17.18;75.89
34177;BME280;20450;49.074;9.158;2023-08-06T07:50:41;98872.81;;;17.21;76.11
34177;BME280;20450;49.074;9.158;2023-08-06T07:53:09;98865.72;;;16.95;77.12
34177;BME280;20450;49.074;9.158;2023-08-06T07:55:38;98869.28;;;17.11;76.25
34177;BME280;20450;49.074;9.158;2023-08-06T07:58:05;98861.06;;;17.26;75.57
34177;BME280;20450;49.074;9.158;2023-08-06T08:00:31;98868.66;;;17.39;74.93
34177;BME280;20450;49.074;9.158;2023-08-06T08:03:00;98867.59;;;17.30;75.19
34177;BME280;20450;49.074;9.158;2023-08-06T08:05:28;98866.72;;;17.39;74.44
34177;BME280;20450;49.074;9.158;2023-08-06T08:07:59;98865.38;;;17.32;75.45
34177;BME280;20450;49.074;9.158;2023-08-06T08:10:27;98853.38;;;17.48;74.63
34177;BME280;20450;49.074;9.158;2023-08-06T08:12:55;98868.88;;;17.57;74.72
34177;BME280;20450;49.074;9.158;2023-08-06T08:15:22;98868.38;;;17.50;75.06
34177;BME280;20450;49.074;9.158;2023-08-06T08:17:52;98864.81;;;17.55;75.75
34177;BME280;20450;49.074;9.158;2023-08-06T08:20:20;98869.78;;;17.18;76.57
34177;BME280;20450;49.074;9.158;2023-08-06T08:22:48;98856.66;;;17.25;76.22
34177;BME280;20450;49.074;9.158;2023-08-06T08:25:16;98867.56;;;17.40;75.58
34177;BME280;20450;49.074;9.158;2023-08-06T08:27:43;98858.84;;;17.48;75.46
34177;BME280;20450;49.074;9.158;2023-08-06T08:30:11;98863.75;;;17.51;74.39
34177;BME280;20450;49.074;9.158;2023-08-06T08:32:39;98856.59;;;17.60;74.69
34177;BME280;20450;49.074;9.158;2023-08-06T08:35:07;98862.09;;;17.50;74.55
34177;BME280;20450;49.074;9.158;2023-08-06T08:37:36;98861.81;;;17.41;74.21
34177;BME280;20450;49.074;9.158;2023-08-06T08:40:04;98858.78;;;17.58;74.94
34177;BME280;20450;49.074;9.158;2023-08-06T08:42:33;98863.41;;;17.68;73.50
34177;BME280;20450;49.074;9.158;2023-08-06T08:45:02;98857.00;;;17.87;72.96
34177;BME280;20450;49.074;9.158;2023-08-06T08:47:31;98853.34;;;18.07;72.14
34177;BME280;20450;49.074;9.158;2023-08-06T08:50:00;98845.34;;;18.20;71.54
34177;BME280;20450;49.074;9.158;2023-08-06T08:52:33;98852.16;;;18.23;72.21
34177;BME280;20450;49.074;9.158;2023-08-06T08:55:07;98855.53;;;18.10;72.58
34177;BME280;20450;49.074;9.158;2023-08-06T08:57:37;98857.88;;;18.26;72.32
34177;BME280;20450;49.074;9.158;2023-08-06T09:00:05;98858.22;;;18.15;72.32
34177;BME280;20450;49.074;9.158;2023-08-06T09:02:34;98852.97;;;18.28;71.89
34177;BME280;20450;49.074;9.158;2023-08-06T09:05:05;98857.47;;;18.04;72.02
34177;BME280;20450;49.074;9.158;2023-08-06T09:07:35;98849.41;;;18.28;72.68
34177;BME280;20450;49.074;9.158;2023-08-06T09:10:12;98853.19;;;18.37;72.35
34177;BME280;20450;49.074;9.158;2023-08-06T09:12:44;98854.03;;;18.37;71.90
34177;BME280;20450;49.074;9.158;2023-08-06T09:15:12;98847.13;;;18.45;71.38
34177;BME280;20450;49.074;9.158;2023-08-06T09:17:40;98854.00;;;18.32;72.83
34177;BME280;20450;49.074;9.158;2023-08-06T09:20:12;98856.25;;;18.25;74.87
34177;BME280;20450;49.074;9.158;2023-08-06T09:22:40;98854.66;;;18.19;74.52
34177;BME280;20450;49.074;9.158;2023-08-06T09:25:08;98861.25;;;18.13;74.44
34177;BME280;20450;49.074;9.158;2023-08-06T09:27:36;98855.50;;;18.15;73.98
34177;BME280;20450;49.074;9.158;2023-08-06T09:30:07;98854.44;;;18.11;73.86
34177;BME280;20450;49.074;9.158;2023-08-06T09:32:45;98857.97;;;18.11;73.53
34177;BME280;20450;49.074;9.158;2023-08-06T09:35:16;98848.16;;;18.05;72.95
34177;BME280;20450;49.074;9.158;2023-08-06T09:37:43;98861.81;;;18.10;72.32
34177;BME280;20450;49.074;9.158;2023-08-06T09:40:27;98851.84;;;18.29;71.71
34177;BME280;20450;49.074;9.158;2023-08-06T09:42:56;98854.53;;;18.39;70.72
34177;BME280;20450;49.074;9.158;2023-08-06T09:45:30;98872.53;;;18.50;70.33
34177;BME280;20450;49.074;9.158;2023-08-06T09:47:59;98866.06;;;18.70;70.80
34177;BME280;20450;49.074;9.158;2023-08-06T09:50:31;98859.22;;;18.72;71.20
34177;BME280;20450;49.074;9.158;2023-08-06T09:53:01;98858.44;;;18.67;71.40
34177;BME280;20450;49.074;9.158;2023-08-06T09:55:35;98852.25;;;18.51;71.47
34177;BME280;20450;49.074;9.158;2023-08-06T09:58:02;98864.63;;;18.44;71.47
34177;BME280;20450;49.074;9.158;2023-08-06T10:00:33;98863.09;;;18.66;70.65
34177;BME280;20450;49.074;9.158;2023-08-06T10:03:06;98857.31;;;18.68;70.60
34177;BME280;20450;49.074;9.158;2023-08-06T10:05:36;98844.34;;;18.50;69.66
34177;BME280;20450;49.074;9.158;2023-08-06T10:08:06;98867.38;;;18.77;68.57
34177;BME280;20450;49.074;9.158;2023-08-06T10:10:34;98868.34;;;18.91;68.57
34177;BME280;20450;49.074;9.158;2023-08-06T10:13:03;98865.66;;;18.86;68.57
34177;BME280;20450;49.074;9.158;2023-08-06T10:15:36;98863.97;;;18.90;68.81
34177;BME280;20450;49.074;9.158;2023-08-06T10:18:11;98853.03;;;18.90;68.35
34177;BME280;20450;49.074;9.158;2023-08-06T10:20:41;98870.88;;;18.83;68.37
34177;BME280;20450;49.074;9.158;2023-08-06T10:23:09;98870.69;;;18.74;68.51
34177;BME280;20450;49.074;9.158;2023-08-06T10:25:40;98864.91;;;18.42;70.20
34177;BME280;20450;49.074;9.158;2023-08-06T10:28:25;98860.94;;;18.20;71.44
34177;BME280;20450;49.074;9.158;2023-08-06T10:31:07;98875.41;;;18.25;71.88
34177;BME280;20450;49.074;9.158;2023-08-06T10:33:42;98881.34;;;18.32;71.81
34177;BME280;20450;49.074;9.158;2023-08-06T10:36:10;98888.75;;;18.37;72.19
34177;BME280;20450;49.074;9.158;2023-08-06T10:38:46;98890.31;;;18.48;72.44
34177;BME280;20450;49.074;9.158;2023-08-06T10:41:21;98879.69;;;18.41;72.70
34177;BME280;20450;49.074;9.158;2023-08-06T10:43:50;98889.81;;;18.36;72.46
34177;BME280;20450;49.074;9.158;2023-08-06T10:46:26;98886.69;;;18.09;73.17
34177;BME280;20450;49.074;9.158;2023-08-06T10:48:54;98894.69;;;18.00;73.72
34177;BME280;20450;49.074;9.158;2023-08-06T10:51:21;98878.84;;;17.97;72.78
34177;BME280;20450;49.074;9.158;2023-08-06T10:53:53;98886.53;;;17.85;72.36
34177;BME280;20450;49.074;9.158;2023-08-06T10:56:25;98888.66;;;17.93;71.61
34177;BME280;20450;49.074;9.158;2023-08-06T10:58:56;98892.16;;;18.14;71.21
34177;BME280;20450;49.074;9.158;2023-08-06T11:01:29;98885.88;;;18.08;71.17
34177;BME280;20450;49.074;9.158;2023-08-06T11:04:01;98902.59;;;18.02;70.95
34177;BME280;20450;49.074;9.158;2023-08-06T11:06:31;98893.56;;;18.01;70.86
34177;BME280;20450;49.074;9.158;2023-08-06T11:08:58;98907.00;;;17.88;71.59
34177;BME280;20450;49.074;9.158;2023-08-06T11:11:26;98904.22;;;18.03;71.57
34177;BME280;20450;49.074;9.158;2023-08-06T11:13:58;98897.69;;;17.99;70.62
34177;BME280;20450;49.074;9.158;2023-08-06T11:16:26;98913.00;;;17.95;71.82
34177;BME280;20450;49.074;9.158;2023-08-06T11:18:58;98907.63;;;17.75;72.36
34177;BME280;20450;49.074;9.158;2023-08-06T11:21:28;98915.56;;;17.66;72.62
34177;BME280;20450;49.074;9.158;2023-08-06T11:23:58;98905.94;;;17.84;72.45
34177;BME280;20450;49.074;9.158;2023-08-06T11:26:28;98929.16;;;17.86;72.72
34177;BME280;20450;49.074;9.158;2023-08-06T11:28:57;98923.97;;;17.80;71.76
34177;BME280;20450;49.074;9.158;2023-08-06T11:31:35;98921.53;;;17.78;72.05
34177;BME280;20450;49.074;9.158;2023-08-06T11:34:04;98922.34;;;17.74;72.17
34177;BME280;20450;49.074;9.158;2023-08-06T11:36:33;98924.34;;;17.58;72.47
34177;BME280;20450;49.074;9.158;2023-08-06T11:39:02;98933.03;;;17.65;72.82
34177;BME280;20450;49.074;9.158;2023-08-06T11:41:30;98923.19;;;17.74;72.80
34177;BME280;20450;49.074;9.158;2023-08-06T11:44:02;98943.97;;;17.65;73.88
34177;BME280;20450;49.074;9.158;2023-08-06T11:46:53;98935.25;;;17.58;74.64
34177;BME280;20450;49.074;9.158;2023-08-06T11:49:37;98936.38;;;17.47;76.34
34177;BME280;20450;49.074;9.158;2023-08-06T11:52:19;98943.16;;;17.39;76.40
34177;BME280;20450;49.074;9.158;2023-08-06T11:55:00;98947.56;;;17.35;76.80
34177;BME280;20450;49.074;9.158;2023-08-06T11:57:29;98950.00;;;17.37;76.56
34177;BME280;20450;49.074;9.158;2023-08-06T11:59:57;98953.84;;;17.26;76.62
34177;BME280;20450;49.074;9.158;2023-08-06T12:02:26;98951.94;;;17.11;77.16
34177;BME280;20450;49.074;9.158;2023-08-06T12:04:58;98962.31;;;17.04;77.26
34177;BME280;20450;49.074;9.158;2023-08-06T12:07:29;98958.50;;;17.05;77.67
34177;BME280;20450;49.074;9.158;2023-08-06T12:09:57;98963.94;;;17.05;77.89
34177;BME280;20450;49.074;9.158;2023-08-06T12:12:25;98956.00;;;16.64;79.07
34177;BME280;20450;49.074;9.158;2023-08-06T12:14:55;98973.75;;;16.66;79.47
34177;BME280;20450;49.074;9.158;2023-08-06T12:17:25;98986.03;;;16.74;78.96
34177;BME280;20450;49.074;9.158;2023-08-06T12:19:54;98980.84;;;16.72;79.63
34177;BME280;20450;49.074;9.158;2023-08-06T12:22:33;98983.56;;;16.67;79.61
34177;BME280;20450;49.074;9.158;2023-08-06T12:25:09;98988.16;;;16.57;79.67
34177;BME280;20450;49.074;9.158;2023-08-06T12:27:44;98996.31;;;16.52;80.09
34177;BME280;20450;49.074;9.158;2023-08-06T12:30:15;98994.19;;;16.59;79.41
34177;BME280;20450;49.074;9.158;2023-08-06T12:32:46;98999.09;;;16.57;79.80
34177;BME280;20450;49.074;9.158;2023-08-06T12:35:22;98987.88;;;16.48;79.37
34177;BME280;20450;49.074;9.158;2023-08-06T12:37:53;99004.78;;;16.50;79.67
34177;BME280;20450;49.074;9.158;2023-08-06T12:40:22;99014.06;;;16.59;79.75
34177;BME280;20450;49.074;9.158;2023-08-06T12:43:10;99006.97;;;16.48;80.52
34177;BME280;20450;49.074;9.158;2023-08-06T12:45:42;99021.16;;;16.55;80.52
34177;BME280;20450;49.074;9.158;2023-08-06T12:48:11;99025.25;;;16.58;79.95
34177;BME280;20450;49.074;9.158;2023-08-06T12:50:38;99035.59;;;16.51;79.89
34177;BME280;20450;49.074;9.158;2023-08-06T12:53:05;99047.34;;;16.51;80.33
34177;BME280;20450;49.074;9.158;2023-08-06T12:55:34;99047.09;;;16.63;80.41
34177;BME280;20450;49.074;9.158;2023-08-06T12:58:07;99049.88;;;16.78;79.58
34177;BME280;20450;49.074;9.158;2023-08-06T13:00:38;99055.03;;;16.74;79.54
34177;BME280;20450;49.074;9.158;2023-08-06T13:03:08;99041.94;;;16.76;79.31
34177;BME280;20450;49.074;9.158;2023-08-06T13:05:43;99050.16;;;16.96;78.65
34177;BME280;20450;49.074;9.158;2023-08-06T13:08:10;99054.00;;;17.05;78.47
34177;BME280;20450;49.074;9.158;2023-08-06T13:10:38;99055.63;;;16.96;78.81